ADDS METAR Data INFO
IDs: Format: Raw Decoded Include TAF

Data at: 1936 UTC 19 Jul 2018

KLVK 191853Z VRB03KT 10SM CLR 29/14 A2991 RMK AO2 SLP125 T02940139
KLVK 191753Z 10SM CLR 26/13 A2993 RMK AO2 SLP130 T02610133 10261 20156 58002
KLVK 191653Z 26004KT 10SM CLR 23/13 A2993 RMK AO2 SLP133 T02280133
KLVK 191553Z 25004KT 9SM CLR 20/13 A2994 RMK AO2 SLP135 T02000133
KLVK 191453Z 32003KT 8SM CLR 18/13 A2993 RMK AO2 SLP132 T01780128 53009
KLVK 191353Z 00000KT 8SM CLR 16/13 A2992 RMK AO2 SLP129 T01610128
KLVK 191253Z AUTO 30004KT 10SM CLR 16/12 A2991 RMK AO2 SLP125 T01560122
KLVK 191153Z AUTO 32004KT 10SM CLR 17/12 A2990 RMK AO2 SLP122 T01670122 10211 20167 53002
KLVK 191053Z AUTO 00000KT 10SM CLR 17/12 A2990 RMK AO2 SLP120 T01720122
KLVK 190953Z AUTO 30004KT 10SM CLR 18/13 A2990 RMK AO2 SLP121 T01780128
KLVK 190853Z AUTO 31004KT 10SM CLR 19/13 A2990 RMK AO2 SLP120 T01890128 58004
KLVK 190753Z AUTO 28005KT 10SM CLR 19/13 A2990 RMK AO2 SLP122 T01940128 403560144
KLVK 190653Z AUTO 30004KT 10SM CLR 21/13 A2991 RMK AO2 SLP123 T02060133
KLVK 190553Z AUTO 29004KT 10SM CLR 21/13 A2991 RMK AO2 SLP124 T02110128 10339 20211 51012
KLVK 190453Z 30007KT 10SM CLR 22/13 A2991 RMK AO2 SLP124 T02220133
KLVK 190353Z 30007KT 10SM CLR 24/13 A2989 RMK AO2 SLP118 T02390133
KLVK 190253Z 29009KT 10SM CLR 27/13 A2987 RMK AO2 SLP113 T02670133 55000
KLVK 190153Z 29009KT 10SM CLR 30/14 A2987 RMK AO2 SLP113 T03000144
KLVK 190053Z 29009KT 10SM CLR 32/14 A2987 RMK AO2 SLP112 T03220144
KLVK 182353Z 29009KT 10SM CLR 33/14 A2987 RMK AO2 SLP112 T03330144 10356 20261 56014
KLVK 182253Z 29010KT 10SM CLR 36/14 A2988 RMK AO2 SLP115 T03560139
KLVK 182153Z 28007KT 10SM CLR 36/14 A2990 RMK AO2 SLP122 T03560144
KLVK 182053Z 28006KT 10SM CLR 34/15 A2992 RMK AO2 SLP127 T03390150 58017
KLVK 181953Z 29007KT 10SM CLR 32/14 A2994 RMK AO2 SLP133 T03220144
KLVK 181853Z 00000KT 10SM CLR 29/14 A2996 RMK AO2 SLP139 T02940139
KLVK 181753Z VRB03KT 10SM CLR 26/13 A2997 RMK AO2 SLP145 T02610133 10261 20144 58001
KLVK 181653Z 25005KT 10SM CLR 22/13 A2997 RMK AO2 SLP147 T02170133
KLVK 181553Z 25005KT 8SM CLR 19/13 A2998 RMK AO2 SLP148 T01890133
KLVK 181453Z VRB04KT 8SM CLR 17/13 A2997 RMK AO2 SLP145 T01670128 53006
KLVK 181353Z 26005KT 7SM CLR 16/13 A2996 RMK AO2 SLP142 T01560128
KLVK 181253Z AUTO 31004KT 9SM CLR 15/12 A2995 RMK AO2 SLP138 T01500122
KLVK 181153Z AUTO 31003KT 10SM CLR 16/12 A2995 RMK AO2 SLP138 T01560117 10200 20150 56001
KLVK 181053Z AUTO 00000KT 10SM CLR 16/11 A2995 RMK AO2 SLP139 T01560111
KLVK 180953Z AUTO 31003KT 10SM CLR 16/11 A2995 RMK AO2 SLP137 T01560111
KLVK 180853Z AUTO 00000KT 10SM CLR 17/11 A2995 RMK AO2 SLP139 T01670111 51004
KLVK 180753Z AUTO 30004KT 10SM CLR 18/11 A2995 RMK AO2 SLP137 T01830106 403560133